createdAt,value
2023-01-30T00:00:54.118Z,99.99
2023-01-30T00:01:55.206Z,99.99
2023-01-30T00:02:55.483Z,99.99
2023-01-30T00:03:55.968Z,99.99
2023-01-30T00:04:56.672Z,99.99
2023-01-30T00:05:57.758Z,99.99
2023-01-30T00:06:57.943Z,99.99
2023-01-30T00:07:58.875Z,99.99
2023-01-30T00:08:59.403Z,99.99
2023-01-30T00:09:59.712Z,99.99
2023-01-30T00:11:00.388Z,99.99
2023-01-30T00:12:01.611Z,99.99
2023-01-30T00:13:02.521Z,99.99
2023-01-30T00:14:03.168Z,99.99
2023-01-30T00:15:03.370Z,99.99
2023-01-30T00:16:04.707Z,99.99
2023-01-30T00:17:04.812Z,99.99
2023-01-30T00:18:05.456Z,99.99
2023-01-30T00:19:06.674Z,99.99
2023-01-30T00:20:07.871Z,99.99
2023-01-30T00:21:08.324Z,99.99
2023-01-30T00:22:09.528Z,99.99
2023-01-30T00:23:09.749Z,99.99
2023-01-30T00:24:10.744Z,99.99
2023-01-30T00:25:11.768Z,99.99
2023-01-30T00:26:11.749Z,99.99
2023-01-30T00:27:12.187Z,99.99
2023-01-30T00:28:12.859Z,99.99
2023-01-30T00:29:13.764Z,99.99
2023-01-30T00:30:14.689Z,99.99
2023-01-30T00:31:14.850Z,99.99
2023-01-30T00:32:15.491Z,99.99
2023-01-30T00:33:16.560Z,99.99
2023-01-30T00:34:16.776Z,99.99
2023-01-30T00:35:16.966Z,99.99
2023-01-30T00:36:17.383Z,99.99
2023-01-30T00:37:18.300Z,99.99
2023-01-30T00:38:19.371Z,99.99
2023-01-30T00:39:19.632Z,99.99
2023-01-30T00:40:20.653Z,99.99
2023-01-30T00:41:20.886Z,99.99
2023-01-30T00:42:21.527Z,99.99
2023-01-30T00:43:22.473Z,99.99
2023-01-30T00:44:23.666Z,99.99
2023-01-30T00:45:24.514Z,99.99
2023-01-30T00:46:24.860Z,99.99
2023-01-30T00:47:25.779Z,99.99
2023-01-30T00:48:26.208Z,99.99
2023-01-30T00:49:26.140Z,99.99
2023-01-30T00:50:26.614Z,99.99
2023-01-30T00:51:27.143Z,99.99
2023-01-30T00:52:28.077Z,99.99
2023-01-30T00:53:29.023Z,99.99
2023-01-30T00:54:28.946Z,99.99
2023-01-30T00:55:29.963Z,99.99
2023-01-30T00:56:30.881Z,99.99
2023-01-30T00:57:31.105Z,99.99
2023-01-30T00:58:31.758Z,99.99
2023-01-30T00:59:32.958Z,99.99
2023-01-30T01:00:32.943Z,99.99
2023-01-30T01:01:33.586Z,99.99
2023-01-30T01:02:34.154Z,99.99
2023-01-30T01:03:35.160Z,99.99
2023-01-30T01:04:36.283Z,99.99
2023-01-30T01:05:36.558Z,99.99
2023-01-30T01:06:37.280Z,99.99
2023-01-30T01:07:38.521Z,99.99
2023-01-30T01:08:39.141Z,99.99
2023-01-30T01:09:39.752Z,99.99
2023-01-30T01:10:41.031Z,99.99
2023-01-30T01:11:41.556Z,99.99
2023-01-30T01:12:41.786Z,99.99
2023-01-30T01:13:42.706Z,99.99
2023-01-30T01:14:43.287Z,99.99
2023-01-30T01:15:44.101Z,99.99
2023-01-30T01:16:44.802Z,99.99
2023-01-30T01:17:45.727Z,99.99
2023-01-30T01:18:45.969Z,99.99
2023-01-30T01:19:46.604Z,99.99
2023-01-30T01:20:47.884Z,99.99
2023-01-30T01:21:48.146Z,99.99
2023-01-30T01:22:49.071Z,99.99
2023-01-30T01:23:49.561Z,99.99
2023-01-30T01:24:50.159Z,99.99
2023-01-30T01:25:50.689Z,99.99
2023-01-30T01:26:51.024Z,99.99
2023-01-30T01:27:51.233Z,99.99
2023-01-30T01:28:51.485Z,99.99
2023-01-30T01:29:51.394Z,99.99
2023-01-30T01:30:52.337Z,99.99
2023-01-30T01:31:52.851Z,99.99
2023-01-30T01:32:53.391Z,99.99
2023-01-30T01:33:53.465Z,99.99
2023-01-30T01:34:53.947Z,99.99
2023-01-30T01:35:53.849Z,99.99
2023-01-30T01:36:59.679Z,99.99
2023-01-30T01:37:55.387Z,99.99
2023-01-30T01:38:55.835Z,99.99
2023-01-30T01:39:57.051Z,99.99
2023-01-30T01:40:57.508Z,99.99
2023-01-30T01:41:57.702Z,99.99
2023-01-30T01:42:58.126Z,99.99
2023-01-30T01:43:58.779Z,99.99
2023-01-30T01:44:59.717Z,99.99
2023-01-30T01:45:59.993Z,99.99
2023-01-30T01:47:00.946Z,99.99
2023-01-30T01:48:00.912Z,99.99
2023-01-30T01:49:01.533Z,99.99
2023-01-30T01:50:02.728Z,99.99
2023-01-30T01:51:03.072Z,99.99
2023-01-30T01:52:04.059Z,99.99
2023-01-30T01:53:04.704Z,99.99
2023-01-30T01:54:05.952Z,99.99
2023-01-30T01:55:06.185Z,99.99
2023-01-30T01:56:06.763Z,99.99
2023-01-30T01:57:06.983Z,99.99
2023-01-30T01:58:07.930Z,99.99
2023-01-30T01:59:08.414Z,99.99
2023-01-30T02:00:08.650Z,99.99
2023-01-30T02:01:09.097Z,99.99
2023-01-30T02:02:09.510Z,99.99
2023-01-30T02:03:10.623Z,99.99
2023-01-30T02:04:10.808Z,99.99
2023-01-30T02:05:11.203Z,99.99
2023-01-30T02:06:12.135Z,99.99
2023-01-30T02:07:13.059Z,99.99
2023-01-30T02:08:13.555Z,99.99
2023-01-30T02:09:14.187Z,99.99
2023-01-30T02:10:15.124Z,99.99
2023-01-30T02:11:16.126Z,99.99
2023-01-30T02:12:16.350Z,99.99
2023-01-30T02:13:16.561Z,99.99
2023-01-30T02:14:17.490Z,99.99
2023-01-30T02:15:18.044Z,99.99
2023-01-30T02:16:18.134Z,99.99
2023-01-30T02:17:18.715Z,99.99
2023-01-30T02:18:18.828Z,99.99
2023-01-30T02:19:19.851Z,99.99
2023-01-30T02:20:20.762Z,99.99
2023-01-30T02:21:21.059Z,99.99
2023-01-30T02:22:21.284Z,99.99
2023-01-30T02:23:21.217Z,99.99
2023-01-30T02:24:21.424Z,99.99
2023-01-30T02:25:22.474Z,99.99
2023-01-30T02:26:22.526Z,99.99
2023-01-30T02:27:23.327Z,99.99
2023-01-30T02:28:23.807Z,99.99
2023-01-30T02:29:24.027Z,99.99
2023-01-30T02:30:24.861Z,99.99
2023-01-30T02:31:25.061Z,99.99
2023-01-30T02:32:25.621Z,99.99
2023-01-30T02:33:26.160Z,99.99
2023-01-30T02:34:26.530Z,99.99
2023-01-30T02:35:27.159Z,99.99
2023-01-30T02:36:28.375Z,99.99
2023-01-30T02:37:28.581Z,99.99
2023-01-30T02:38:29.207Z,99.99
2023-01-30T02:39:29.942Z,99.99
2023-01-30T02:40:31.037Z,99.99
2023-01-30T02:41:32.042Z,99.99
2023-01-30T02:42:32.532Z,99.99
2023-01-30T02:43:32.765Z,99.99
2023-01-30T02:44:33.272Z,99.99
2023-01-30T02:45:33.890Z,99.99
2023-01-30T02:46:34.912Z,99.99
2023-01-30T02:47:35.851Z,99.99
2023-01-30T02:48:36.667Z,99.99
2023-01-30T02:49:37.392Z,99.99
2023-01-30T02:50:38.597Z,99.99
2023-01-30T02:51:39.608Z,99.99
2023-01-30T02:52:40.267Z,99.99
2023-01-30T02:53:40.916Z,99.99
2023-01-30T02:54:41.901Z,99.99
2023-01-30T02:55:42.875Z,99.99
2023-01-30T02:56:43.803Z,99.99
2023-01-30T02:57:43.728Z,99.99
2023-01-30T02:58:43.936Z,99.99
2023-01-30T02:59:44.346Z,99.99
2023-01-30T03:00:45.261Z,99.99
2023-01-30T03:01:46.191Z,99.99
2023-01-30T03:02:46.426Z,99.99
2023-01-30T03:03:46.631Z,99.99
2023-01-30T03:04:47.544Z,99.99
2023-01-30T03:05:48.030Z,99.99
2023-01-30T03:06:47.958Z,99.99
2023-01-30T03:07:48.444Z,99.99
2023-01-30T03:08:48.707Z,99.99
2023-01-30T03:09:48.861Z,99.99
2023-01-30T03:10:49.636Z,99.99
2023-01-30T03:11:50.441Z,99.99
2023-01-30T03:12:50.803Z,99.99
2023-01-30T03:13:51.200Z,99.99
2023-01-30T03:14:51.449Z,99.99
2023-01-30T03:15:51.724Z,99.99
2023-01-30T03:16:52.099Z,99.99
2023-01-30T03:17:51.907Z,99.99
2023-01-30T03:18:52.843Z,99.99
2023-01-30T03:19:53.812Z,99.99
2023-01-30T03:20:54.476Z,99.99
2023-01-30T03:21:55.179Z,99.99
2023-01-30T03:22:55.730Z,99.99
2023-01-30T03:23:56.575Z,99.99
2023-01-30T03:24:57.072Z,99.99
2023-01-30T03:25:57.293Z,99.99
2023-01-30T03:26:58.223Z,99.99
2023-01-30T03:27:58.295Z,99.99
2023-01-30T03:28:59.519Z,99.99
2023-01-30T03:29:59.416Z,99.99
2023-01-30T03:31:00.249Z,99.99
2023-01-30T03:32:00.578Z,99.99
2023-01-30T03:33:00.600Z,99.99
2023-01-30T03:34:01.807Z,99.99
2023-01-30T03:35:02.628Z,99.99
2023-01-30T03:36:02.819Z,99.99
2023-01-30T03:37:03.528Z,99.99
2023-01-30T03:38:04.740Z,99.99
2023-01-30T03:39:05.658Z,99.99
2023-01-30T03:40:06.320Z,99.99
2023-01-30T03:41:07.000Z,99.99
2023-01-30T03:42:08.342Z,99.99
2023-01-30T03:43:08.287Z,99.99
2023-01-30T03:44:09.583Z,99.99
2023-01-30T03:45:09.837Z,99.99
2023-01-30T03:46:10.820Z,99.99
2023-01-30T03:47:10.981Z,99.99
2023-01-30T03:48:12.170Z,99.99
2023-01-30T03:49:12.390Z,99.99
2023-01-30T03:50:13.250Z,99.99
2023-01-30T03:51:14.187Z,99.99
2023-01-30T03:52:15.228Z,99.99
2023-01-30T03:53:15.464Z,99.99
2023-01-30T03:54:15.664Z,99.99
2023-01-30T03:55:17.033Z,99.99
2023-01-30T03:56:16.988Z,99.99
2023-01-30T03:57:17.259Z,99.99
2023-01-30T03:58:18.172Z,99.99
2023-01-30T03:59:18.734Z,99.99
2023-01-30T04:00:19.284Z,99.99
2023-01-30T04:01:19.578Z,99.99
2023-01-30T04:02:20.534Z,99.99
2023-01-30T04:03:20.748Z,99.99
2023-01-30T04:04:21.244Z,99.99
2023-01-30T04:05:22.185Z,99.99
2023-01-30T04:06:22.531Z,99.99
2023-01-30T04:07:23.305Z,99.99
2023-01-30T04:08:24.547Z,99.99
2023-01-30T04:09:25.477Z,99.99
2023-01-30T04:10:25.456Z,99.99
2023-01-30T04:11:26.662Z,99.99
2023-01-30T04:12:26.962Z,99.99
2023-01-30T04:13:27.881Z,99.99
2023-01-30T04:14:28.580Z,99.99
2023-01-30T04:15:29.121Z,99.99
2023-01-30T04:16:29.425Z,99.99
2023-01-30T04:17:29.798Z,99.99
2023-01-30T04:18:29.997Z,99.99
2023-01-30T04:19:30.491Z,99.99
2023-01-30T04:20:31.415Z,99.99
2023-01-30T04:21:32.347Z,99.99
2023-01-30T04:22:33.049Z,99.99
2023-01-30T04:23:33.979Z,99.99
2023-01-30T04:24:33.891Z,99.99
2023-01-30T04:25:35.113Z,99.99
2023-01-30T04:26:35.895Z,99.99
2023-01-30T04:27:36.276Z,99.99
2023-01-30T04:28:36.780Z,99.99
2023-01-30T04:29:37.752Z,99.99
2023-01-30T04:30:38.055Z,99.99
2023-01-30T04:31:38.352Z,99.99
2023-01-30T04:32:38.909Z,99.99
2023-01-30T04:33:40.339Z,99.99
2023-01-30T04:34:40.855Z,99.99
2023-01-30T04:35:40.777Z,99.99
2023-01-30T04:36:41.988Z,99.99
2023-01-30T04:37:42.929Z,99.99
2023-01-30T04:38:43.562Z,99.99
2023-01-30T04:39:43.845Z,99.99
2023-01-30T04:40:44.323Z,99.99
2023-01-30T04:41:45.129Z,99.99
2023-01-30T04:42:45.814Z,99.99
2023-01-30T04:43:45.738Z,99.99
2023-01-30T04:44:46.309Z,99.99
2023-01-30T04:45:47.007Z,99.99
2023-01-30T04:46:47.208Z,99.99
2023-01-30T04:47:48.270Z,99.99
2023-01-30T04:48:48.903Z,99.99
2023-01-30T04:49:49.826Z,99.99
2023-01-30T04:50:50.030Z,99.99
2023-01-30T04:51:50.514Z,99.99
2023-01-30T04:52:50.865Z,99.99
2023-01-30T04:53:51.710Z,99.99
2023-01-30T04:54:52.933Z,99.99
2023-01-30T04:55:53.314Z,99.99
2023-01-30T04:56:54.518Z,99.99
2023-01-30T04:57:55.006Z,99.99
2023-01-30T04:58:55.594Z,99.99
2023-01-30T04:59:55.839Z,99.99
2023-01-30T05:00:56.378Z,99.99
2023-01-30T05:01:57.042Z,99.99
2023-01-30T05:02:57.959Z,99.99
2023-01-30T05:03:58.232Z,99.99
2023-01-30T05:04:59.063Z,99.99
2023-01-30T05:05:59.834Z,99.99
2023-01-30T05:07:00.405Z,99.99
2023-01-30T05:08:00.595Z,99.99
2023-01-30T05:09:00.518Z,99.99
2023-01-30T05:10:01.014Z,99.99
2023-01-30T05:11:01.256Z,99.99
2023-01-30T05:12:02.306Z,99.99
2023-01-30T05:13:02.950Z,99.99
2023-01-30T05:14:02.897Z,99.99
2023-01-30T05:15:04.154Z,99.99
2023-01-30T05:16:04.193Z,99.99
2023-01-30T05:17:05.513Z,99.99
2023-01-30T05:18:05.949Z,99.99
2023-01-30T05:19:06.163Z,99.99
2023-01-30T05:20:07.392Z,99.99
2023-01-30T05:21:07.644Z,99.99
2023-01-30T05:22:08.153Z,99.99
2023-01-30T05:23:08.860Z,99.99
2023-01-30T05:24:09.074Z,99.99
2023-01-30T05:25:09.672Z,99.99
2023-01-30T05:26:10.417Z,99.99
2023-01-30T05:27:10.484Z,99.99
2023-01-30T05:28:10.420Z,99.99
2023-01-30T05:29:10.642Z,99.99
2023-01-30T05:30:11.664Z,99.99
2023-01-30T05:31:12.302Z,99.99
2023-01-30T05:32:12.572Z,99.99
2023-01-30T05:33:12.898Z,99.99
2023-01-30T05:34:13.170Z,99.99
2023-01-30T05:35:14.061Z,99.99
2023-01-30T05:36:14.809Z,99.99
2023-01-30T05:37:15.074Z,99.99
2023-01-30T05:38:16.008Z,99.99
2023-01-30T05:39:16.666Z,99.99
2023-01-30T05:40:16.889Z,99.99
2023-01-30T05:41:17.863Z,99.99
2023-01-30T05:42:18.137Z,99.99
2023-01-30T05:43:18.135Z,99.99
2023-01-30T05:44:19.337Z,99.99
2023-01-30T05:45:20.463Z,99.99
2023-01-30T05:46:20.351Z,99.99
2023-01-30T05:47:20.438Z,99.99
2023-01-30T05:48:21.638Z,99.99
2023-01-30T05:49:22.180Z,99.99
2023-01-30T05:50:22.668Z,99.99
2023-01-30T05:51:23.166Z,99.99
2023-01-30T05:52:23.404Z,99.99
2023-01-30T05:53:24.447Z,99.99
2023-01-30T05:54:24.936Z,99.99
2023-01-30T05:55:25.691Z,99.99
2023-01-30T05:56:25.676Z,99.99
2023-01-30T05:57:25.612Z,99.99
2023-01-30T05:58:26.820Z,99.99
2023-01-30T05:59:27.099Z,99.99
2023-01-30T06:00:27.628Z,99.99
2023-01-30T06:01:28.203Z,99.99
2023-01-30T06:02:28.313Z,99.99
2023-01-30T06:03:28.620Z,99.99
2023-01-30T06:04:29.626Z,99.99
2023-01-30T06:05:29.822Z,99.99
2023-01-30T06:06:29.739Z,99.99
2023-01-30T06:07:31.012Z,99.99
2023-01-30T06:08:31.656Z,99.99
2023-01-30T06:09:32.601Z,99.99
2023-01-30T06:10:32.449Z,99.99
2023-01-30T06:11:33.658Z,99.99
2023-01-30T06:12:33.856Z,99.99
2023-01-30T06:13:33.969Z,99.99
2023-01-30T06:14:34.512Z,99.99
2023-01-30T06:15:34.704Z,99.99
2023-01-30T06:16:35.483Z,99.99
2023-01-30T06:17:35.851Z,99.99
2023-01-30T06:18:36.340Z,99.99
2023-01-30T06:19:36.534Z,99.99
2023-01-30T06:20:37.475Z,99.99
2023-01-30T06:21:37.944Z,99.99
2023-01-30T06:22:37.911Z,99.99
2023-01-30T06:23:38.666Z,99.99
2023-01-30T06:24:39.187Z,99.99
2023-01-30T06:25:39.423Z,99.99
2023-01-30T06:26:40.111Z,99.99
2023-01-30T06:27:40.338Z,99.99
2023-01-30T06:28:40.933Z,99.99
2023-01-30T06:29:41.880Z,99.99
2023-01-30T06:30:42.311Z,99.99
2023-01-30T06:31:42.174Z,99.99
2023-01-30T06:32:43.152Z,99.99
2023-01-30T06:33:43.457Z,99.99
2023-01-30T06:34:44.439Z,99.99
2023-01-30T06:35:44.961Z,99.99
2023-01-30T06:36:45.002Z,99.99
2023-01-30T06:37:46.192Z,99.99
2023-01-30T06:38:46.481Z,99.99
2023-01-30T06:39:46.986Z,99.99
2023-01-30T06:40:47.635Z,99.99
2023-01-30T06:41:47.852Z,99.99
2023-01-30T06:42:48.074Z,99.99
2023-01-30T06:43:48.791Z,99.99
2023-01-30T06:44:48.787Z,99.99
2023-01-30T06:45:49.514Z,99.99
2023-01-30T06:46:50.327Z,99.99
2023-01-30T06:47:50.824Z,99.99
2023-01-30T06:48:51.265Z,99.99
2023-01-30T06:49:51.478Z,99.99
2023-01-30T06:50:51.582Z,99.99
2023-01-30T06:51:52.537Z,99.99
2023-01-30T06:52:52.440Z,99.99
2023-01-30T06:53:53.392Z,99.99
2023-01-30T06:54:53.365Z,99.99
2023-01-30T06:55:54.289Z,99.99
2023-01-30T06:56:55.673Z,99.99
2023-01-30T06:57:56.675Z,99.99
2023-01-30T06:58:56.892Z,99.99
2023-01-30T06:59:57.817Z,99.99
2023-01-30T07:00:58.800Z,99.99
2023-01-30T07:01:59.744Z,99.99
2023-01-30T07:02:59.963Z,99.99
2023-01-30T07:04:00.505Z,99.99
2023-01-30T07:05:00.802Z,99.99
2023-01-30T07:06:01.055Z,99.99
2023-01-30T07:07:02.288Z,99.99
2023-01-30T07:08:02.514Z,99.99
2023-01-30T07:09:02.788Z,99.99
2023-01-30T07:10:12.525Z,99.99
2023-01-30T07:11:03.918Z,99.99
2023-01-30T07:12:04.863Z,99.99
2023-01-30T07:13:05.515Z,99.99
2023-01-30T07:14:07.250Z,99.99
2023-01-30T07:15:06.813Z,99.99
2023-01-30T07:16:07.198Z,99.99
2023-01-30T07:17:07.565Z,99.99
2023-01-30T07:18:08.215Z,99.99
2023-01-30T07:19:09.114Z,99.99
2023-01-30T07:20:09.751Z,99.99
2023-01-30T07:21:10.118Z,99.99
2023-01-30T07:22:10.609Z,99.99
2023-01-30T07:23:10.808Z,99.99
2023-01-30T07:24:11.395Z,99.99
2023-01-30T07:25:11.907Z,99.99
2023-01-30T07:26:12.946Z,99.99
2023-01-30T07:27:13.129Z,99.99
2023-01-30T07:28:13.644Z,99.99
2023-01-30T07:29:13.592Z,99.99
2023-01-30T07:30:14.565Z,99.99
2023-01-30T07:31:15.174Z,99.99
2023-01-30T07:32:15.563Z,99.99
2023-01-30T07:33:16.782Z,99.99
2023-01-30T07:34:16.817Z,99.99
2023-01-30T07:35:17.128Z,99.99
2023-01-30T07:36:17.805Z,99.99
2023-01-30T07:37:17.787Z,99.99
2023-01-30T07:38:18.419Z,99.99
2023-01-30T07:39:19.366Z,99.99
2023-01-30T07:40:19.277Z,99.99
2023-01-30T07:41:19.681Z,99.99
2023-01-30T07:42:20.179Z,99.99
2023-01-30T07:43:21.099Z,99.99
2023-01-30T07:44:21.814Z,99.99
2023-01-30T07:45:22.179Z,99.99
2023-01-30T07:46:22.283Z,99.99
2023-01-30T07:47:23.133Z,99.99
2023-01-30T07:48:23.822Z,99.99
2023-01-30T07:49:24.064Z,99.99
2023-01-30T07:50:24.737Z,99.99
2023-01-30T07:51:24.716Z,99.99
2023-01-30T07:52:25.834Z,99.99
2023-01-30T07:53:26.058Z,99.99
2023-01-30T07:54:26.530Z,99.99
2023-01-30T07:55:27.066Z,99.99
2023-01-30T07:56:27.036Z,99.99
2023-01-30T07:57:27.294Z,99.99
2023-01-30T07:58:29.915Z,99.99
2023-01-30T07:59:28.378Z,99.99
2023-01-30T08:00:28.463Z,99.99
2023-01-30T08:01:29.163Z,99.99
2023-01-30T08:02:29.678Z,99.99
2023-01-30T08:03:30.883Z,99.99
2023-01-30T08:04:30.870Z,99.99
2023-01-30T08:05:31.285Z,99.99
2023-01-30T08:06:31.520Z,99.99
2023-01-30T08:07:32.205Z,99.99
2023-01-30T08:08:33.421Z,99.99
2023-01-30T08:09:33.416Z,99.99
2023-01-30T08:10:34.636Z,99.99
2023-01-30T08:11:34.862Z,99.99
2023-01-30T08:12:36.141Z,99.99
2023-01-30T08:13:36.338Z,99.99
2023-01-30T08:14:36.710Z,99.99
2023-01-30T08:15:37.393Z,99.99
2023-01-30T08:16:38.264Z,99.99
2023-01-30T08:17:39.027Z,99.99
2023-01-30T08:18:39.671Z,99.99
2023-01-30T08:19:40.624Z,99.99
2023-01-30T08:20:41.537Z,99.99
2023-01-30T08:21:42.046Z,99.99
2023-01-30T08:22:42.725Z,99.99
2023-01-30T08:23:43.424Z,99.99
2023-01-30T08:24:43.874Z,99.99
2023-01-30T08:25:44.131Z,99.99
2023-01-30T08:26:44.468Z,99.99
2023-01-30T08:27:44.701Z,99.99
2023-01-30T08:28:44.948Z,99.99
2023-01-30T08:29:45.509Z,99.99
2023-01-30T08:30:45.841Z,99.99
2023-01-30T08:31:46.354Z,99.99
2023-01-30T08:32:46.835Z,99.99
2023-01-30T08:33:47.474Z,99.99
2023-01-30T08:34:47.879Z,99.99
2023-01-30T08:35:48.864Z,99.99
2023-01-30T08:36:49.473Z,99.99
2023-01-30T08:37:49.779Z,99.99
2023-01-30T08:38:50.445Z,99.99
2023-01-30T08:39:50.373Z,99.99
2023-01-30T08:40:51.326Z,99.99
2023-01-30T08:41:51.308Z,99.99
2023-01-30T08:42:51.828Z,99.99
2023-01-30T08:43:52.051Z,99.99
2023-01-30T08:44:53.058Z,99.85
2023-01-30T08:45:53.326Z,98.81
2023-01-30T08:46:53.886Z,97.63
2023-01-30T08:47:54.482Z,97.53
2023-01-30T08:48:55.583Z,98.38
2023-01-30T08:49:54.823Z,98.85
2023-01-30T08:50:55.104Z,99.8
2023-01-30T08:51:55.608Z,99.61
2023-01-30T08:52:56.134Z,99.89
2023-01-30T08:53:56.387Z,99.14
2023-01-30T08:54:57.055Z,99.33
2023-01-30T08:55:57.621Z,99.71
2023-01-30T08:56:57.849Z,99.04
2023-01-30T08:57:58.103Z,98.95
2023-01-30T08:58:58.368Z,99.38
2023-01-30T08:59:59.104Z,99.38
2023-01-30T09:00:59.469Z,98.81
2023-01-30T09:02:00.743Z,98.33
2023-01-30T09:03:01.530Z,98.52
2023-01-30T09:04:01.828Z,98.52
2023-01-30T09:05:02.889Z,98.14
2023-01-30T09:06:02.851Z,98.71
2023-01-30T09:07:03.406Z,99.57
2023-01-30T09:08:03.945Z,98.9
2023-01-30T09:09:04.442Z,98.62
2023-01-30T09:10:05.385Z,98.48
2023-01-30T09:11:05.757Z,97.77
2023-01-30T09:12:06.017Z,97.34
2023-01-30T09:13:06.549Z,95.83
2023-01-30T09:14:06.812Z,94.42
2023-01-30T09:15:07.703Z,93.37
2023-01-30T09:16:08.346Z,92.99
2023-01-30T09:17:08.726Z,92.8
2023-01-30T09:18:09.381Z,92.61
2023-01-30T09:19:10.345Z,92.61
2023-01-30T09:20:10.573Z,92.71
2023-01-30T09:21:11.425Z,92.61
2023-01-30T09:22:11.698Z,91.58
2023-01-30T09:23:12.668Z,91.58
2023-01-30T09:24:13.714Z,90.72
2023-01-30T09:25:14.748Z,90.63
2023-01-30T09:26:15.089Z,91.86
2023-01-30T09:27:15.832Z,92.71
2023-01-30T09:28:15.905Z,92.24
2023-01-30T09:29:17.150Z,92.33
2023-01-30T09:30:18.252Z,92.8
2023-01-30T09:31:18.884Z,93.47
2023-01-30T09:32:18.885Z,94.23
2023-01-30T09:33:19.195Z,94.7
2023-01-30T09:34:20.447Z,94.23
2023-01-30T09:35:21.085Z,94.7
2023-01-30T09:36:21.556Z,94.42
2023-01-30T09:37:22.764Z,94.42
2023-01-30T09:38:22.720Z,94.27
2023-01-30T09:39:23.381Z,92.85
2023-01-30T09:40:24.239Z,92.29
2023-01-30T09:41:24.011Z,91.34
2023-01-30T09:42:24.523Z,91.43
2023-01-30T09:43:25.223Z,91.34
2023-01-30T09:44:25.175Z,91.24
2023-01-30T09:45:26.213Z,90.96
2023-01-30T09:46:27.255Z,90.67
2023-01-30T09:47:28.024Z,91.15
2023-01-30T09:48:28.624Z,90.58
2023-01-30T09:49:29.608Z,90.96
2023-01-30T09:50:29.944Z,90.86
2023-01-30T09:51:29.715Z,90.3
2023-01-30T09:52:30.967Z,90.2
2023-01-30T09:53:31.206Z,90.3
2023-01-30T09:54:31.433Z,90.96
2023-01-30T09:55:31.229Z,91.15
2023-01-30T09:56:32.237Z,91.53
2023-01-30T09:57:32.949Z,91.72
2023-01-30T09:58:33.637Z,91.72
2023-01-30T09:59:33.889Z,91.05
2023-01-30T10:00:34.983Z,91.24
2023-01-30T10:01:35.229Z,90.58
2023-01-30T10:02:35.917Z,90.2
2023-01-30T10:03:36.792Z,90.67
2023-01-30T10:04:39.016Z,90.96
2023-01-30T10:05:43.700Z,90.77
2023-01-30T10:06:44.629Z,89.87
2023-01-30T10:07:45.122Z,89.11
2023-01-30T10:08:45.161Z,87.5
2023-01-30T10:09:45.711Z,87.12
2023-01-30T10:10:45.638Z,86.55
2023-01-30T10:11:46.572Z,85.93
2023-01-30T10:12:46.504Z,84.13
2023-01-30T10:13:47.166Z,83.32
2023-01-30T10:14:48.142Z,81.62
2023-01-30T10:15:48.926Z,81.14
2023-01-30T10:16:49.491Z,81.43
2023-01-30T10:17:50.775Z,81.9
2023-01-30T10:18:51.137Z,82.62
2023-01-30T10:19:52.389Z,83.18
2023-01-30T10:20:52.384Z,83
2023-01-30T10:21:53.675Z,83.66
2023-01-30T10:22:54.883Z,83.98
2023-01-30T10:23:54.918Z,84.17
2023-01-30T10:24:56.512Z,84.84
2023-01-30T10:25:56.602Z,85.13
2023-01-30T10:26:57.842Z,84.08
2023-01-30T10:27:58.520Z,84.08
2023-01-30T10:29:11.545Z,82.51
2023-01-30T10:29:59.796Z,81.75
2023-01-30T10:31:00.986Z,79.61
2023-01-30T10:32:01.328Z,78.47
2023-01-30T10:33:01.625Z,78
2023-01-30T10:34:01.935Z,77.81
2023-01-30T10:35:02.460Z,79
2023-01-30T10:36:02.834Z,78.62
2023-01-30T10:37:04.163Z,78.72
2023-01-30T10:38:04.783Z,78.34
2023-01-30T10:39:05.842Z,78.43
2023-01-30T10:40:06.787Z,78.34
2023-01-30T10:41:07.102Z,78.53
2023-01-30T10:42:08.676Z,78.62
2023-01-30T10:43:07.982Z,77.54
2023-01-30T10:44:08.948Z,76.87
2023-01-30T10:45:09.631Z,77.54
2023-01-30T10:46:10.376Z,78.3
2023-01-30T10:47:11.516Z,78.77
2023-01-30T10:48:11.645Z,78.58
2023-01-30T10:49:12.980Z,76.4
2023-01-30T10:50:12.942Z,74.03
2023-01-30T10:51:13.654Z,72.61
2023-01-30T10:52:14.592Z,70.37
2023-01-30T10:53:15.230Z,71.51
2023-01-30T10:54:16.983Z,71.89
2023-01-30T10:55:18.167Z,71.89
2023-01-30T10:56:24.674Z,71.17
2023-01-30T10:57:25.248Z,71.45
2023-01-30T10:58:25.775Z,71.67
2023-01-30T10:59:26.304Z,73.61
2023-01-30T11:00:27.089Z,68.96
2023-01-30T11:01:27.651Z,67.66
2023-01-30T11:02:28.203Z,67.47
2023-01-30T11:03:28.605Z,67.76
2023-01-30T11:04:29.204Z,65.51
2023-01-30T11:05:29.872Z,65.32
2023-01-30T11:06:30.205Z,63.42
2023-01-30T11:07:30.764Z,62.37
2023-01-30T11:08:31.009Z,59.55
2023-01-30T11:09:31.530Z,58.98
2023-01-30T11:10:31.790Z,57.93
2023-01-30T11:11:32.043Z,55.93
2023-01-30T11:12:32.596Z,53.94
2023-01-30T11:13:32.826Z,51.82
2023-01-30T11:14:33.125Z,50.37
2023-01-30T11:15:34.197Z,49.41
2023-01-30T11:16:34.572Z,51.41
2023-01-30T11:17:35.176Z,51.86
2023-01-30T11:19:22.317Z,52.53
2023-01-30T11:19:42.145Z,52.05
2023-01-30T11:20:41.185Z,51.95
2023-01-30T11:21:49.765Z,52.62
2023-01-30T11:22:42.019Z,53.19
2023-01-30T11:23:42.298Z,53.57
2023-01-30T11:24:43.248Z,54.14
2023-01-30T11:25:43.464Z,54.43
2023-01-30T11:26:54.772Z,54.05
2023-01-30T11:27:55.681Z,53.19
2023-01-30T11:28:56.260Z,53.19
2023-01-30T11:29:56.502Z,54.43
2023-01-30T11:30:57.267Z,54.33
2023-01-30T11:31:58.278Z,54.24
2023-01-30T11:32:58.887Z,54.33
2023-01-30T11:33:59.861Z,53.09
2023-01-30T11:35:00.543Z,53.19
2023-01-30T11:36:01.792Z,53.5
2023-01-30T11:37:02.088Z,53.88
2023-01-30T11:38:02.408Z,54.26
2023-01-30T11:39:03.005Z,53.97
2023-01-30T11:40:04.030Z,53.5
2023-01-30T11:41:04.391Z,53.5
2023-01-30T11:42:04.333Z,53.78
2023-01-30T11:43:04.729Z,53.5
2023-01-30T11:44:05.382Z,53.5
2023-01-30T11:45:21.279Z,52.45
2023-01-30T11:46:06.524Z,52.17
2023-01-30T11:47:07.235Z,51.95
2023-01-30T11:48:12.449Z,52.72
2023-01-30T11:50:40.257Z,53.95
2023-01-30T11:51:33.915Z,53.85
2023-01-30T11:52:33.954Z,54.14
2023-01-30T11:53:34.889Z,54.24
2023-01-30T11:54:35.208Z,54.33
2023-01-30T11:55:35.463Z,54.24
2023-01-30T11:56:35.564Z,54.43
2023-01-30T11:57:35.815Z,54.33
2023-01-30T11:58:36.511Z,54.61
2023-01-30T11:59:37.493Z,54.71
2023-01-30T12:00:37.703Z,54.9
2023-01-30T12:01:38.396Z,55.18
2023-01-30T12:02:39.131Z,55.57
2023-01-30T12:03:39.323Z,56.04
2023-01-30T12:04:40.274Z,56.61
2023-01-30T12:05:40.552Z,57.15
2023-01-30T12:06:40.751Z,58.1
2023-01-30T12:07:41.345Z,59.14
2023-01-30T12:08:48.567Z,59.97
2023-01-30T12:09:48.524Z,60.19
2023-01-30T12:10:48.815Z,60.25
2023-01-30T12:11:49.092Z,60.35
2023-01-30T12:12:49.295Z,61.2
2023-01-30T12:13:49.819Z,61.01
2023-01-30T12:14:51.416Z,61.39
2023-01-30T12:15:50.633Z,62.15
2023-01-30T12:16:51.203Z,62.34
2023-01-30T12:17:51.859Z,63.39
2023-01-30T12:18:52.936Z,64.14
2023-01-30T12:19:53.633Z,64.05
2023-01-30T12:20:53.904Z,64.14
2023-01-30T12:21:54.446Z,64.62
2023-01-30T12:22:55.083Z,64.52
2023-01-30T12:23:56.038Z,65.37
2023-01-30T12:24:56.327Z,65.47
2023-01-30T12:25:57.256Z,66.14
2023-01-30T12:26:58.197Z,65.85
2023-01-30T12:28:59.168Z,67.18
2023-01-30T12:29:59.719Z,66.99
2023-01-30T12:31:00.290Z,67.08
2023-01-30T12:32:00.633Z,67.85
2023-01-30T12:34:02.174Z,67.65
2023-01-30T12:35:02.271Z,67.65
2023-01-30T12:36:03.566Z,68.13
2023-01-30T12:37:04.102Z,68.32
2023-01-30T12:38:04.415Z,67.37
2023-01-30T12:39:04.814Z,67.08
2023-01-30T12:40:05.512Z,67.08
2023-01-30T12:41:06.489Z,67.75
2023-01-30T12:42:06.611Z,67.27
2023-01-30T12:43:07.593Z,67.56
2023-01-30T12:44:08.239Z,68.32
2023-01-30T12:45:08.471Z,68.32
2023-01-30T12:46:08.859Z,68.13
2023-01-30T12:47:09.586Z,68.23
2023-01-30T12:48:09.546Z,67.94
2023-01-30T12:49:17.581Z,68.19
2023-01-30T12:50:18.659Z,67.33
2023-01-30T12:51:18.964Z,66.96
2023-01-30T12:52:19.986Z,67.43
2023-01-30T12:53:20.559Z,67.9
2023-01-30T12:54:21.293Z,68
2023-01-30T12:55:21.316Z,68.48
2023-01-30T12:56:22.459Z,68.85
2023-01-30T12:57:22.847Z,69.33
2023-01-30T12:58:24.101Z,68.85
2023-01-30T12:59:24.633Z,68.76
2023-01-30T13:00:25.536Z,69.13
2023-01-30T13:01:25.639Z,69.71
2023-01-30T13:02:26.906Z,69.52
2023-01-30T13:03:26.835Z,69.61
2023-01-30T13:04:27.810Z,69.52
2023-01-30T13:05:27.723Z,69.33